Naven, Sweden

11:31 PM CEST on July 24, 2014 (GMT +0200)
Orslosa, Kallstorp (IVSTRAGT16) Elev 198 ft | 58.51 °N, 12.92 °E | Change Station

Current weather conditions updated 2 minutes ago

Partly Cloudy
Partly Cloudy
68.9 °F
Feels Like 68.9 °F
N
0.0
Wind Variable Wind from North
Gusts 0.0 mph

Tomorrow is forecast to be Cooler than today.

Today
High -- | Low -- °F
--% Chance of Precip.
Yesterday
High -- | Low -- °F
Precip. -- in
4:39 AM 9:47 PM
Waning Crescent, 4% visible
Pressure 30.15 in
Visibility 6.2 miles
Clouds Few 10000 ft
Dew Point 65 °F
Humidity 87%
Rainfall 0.00 in
Snow Depth Not available.
UV 0.0 out of 12
Pollen Not available.
Air Quality Not available.
Flu Activity Not available.
METAR ESIB 242120Z AUTO 08007KT 9999NDV FEW100/// 21/17 Q1021

More Conditions Fewer Conditions

Pressure 30.15 in
Visibility 6.2 miles
Clouds Few 10000 ft
Dew Point 65 °F
Humidity 87%
Rainfall 0.00 in
Snow Depth Not available.
UV 0.0 out of 12
Pollen Not available.
Air Quality Not available.
Flu Activity Not available.
METAR ESIB 242120Z AUTO 08007KT 9999NDV FEW100/// 21/17 Q1021

More Conditions Fewer Conditions

10-Day Weather Forecast

Almanac

Astronomy

Jul. 24, 2014 Rise Set
Actual Time 4:39 AM CEST 9:47 PM CEST
Civil Twilight 3:37 AM CEST 10:48 PM CEST
Nautical Twilight 1:46 AM CEST 12:41 AM CEST
Astronomical Twilight Sun does not rise Sun does not rise
Moon 2:39 AM CEST 7:41 PM CEST
Length of Visible Light 19h 10m
Length of Day
17h 08m
Tomorrow will be 4m 4s shorter.
Waning Crescent, 4% of the Moon is Illuminated
Today
Waning Crescent
Jul 26
New
Aug 3
First Quarter
Aug 10
Full
Aug 17
Last Quarter

Today's Extremes

Country Highs Country Lows

Community

WunderPhotos

Upload Photos

1,737,133 photos uploaded!

WunderBlogs® & News

Nearby

Snow Depth

Not available.

Earthquake Activity

City Distance Mag. Time & Date
No recent earthquake activity has been reported nearby.
Minimum magnitude displayed is 2.5.

Coastal Water Temperatures

Place Temperature
No Stations Reporting

Nearby Weather Stations

Station Location Temp. Dew Point Humidity Wind Precip. Elev Updated Type
Orslosa, Kallstorp, Lidkoping 68.9 °F 65 °F 87% North  at  0.0 mph 0.00 in / hr 198 ft 11:29 PM CEST Normal
Vinninga 62.2 °F 46 °F 56% NE  at  0.0 mph 0.00 in / hr 269 ft 11:30 PM CEST Rapid Fire

Show More Stations Show Fewer Stations